createdAt,value
2017-06-18T03:30:38.212Z,57.60
2017-06-18T03:33:05.943Z,57.50
2017-06-18T03:35:33.671Z,58.10
2017-06-18T03:38:01.756Z,58.10
2017-06-18T03:40:30.170Z,57.90
2017-06-18T03:42:57.814Z,57.80
2017-06-18T03:45:26.585Z,57.60
2017-06-18T03:47:55.009Z,57.20
2017-06-18T03:50:22.657Z,57.10
2017-06-18T03:52:50.319Z,56.70
2017-06-18T03:55:17.974Z,56.90
2017-06-18T03:57:45.624Z,56.90
2017-06-18T04:00:14.039Z,57.00
2017-06-18T04:02:41.745Z,57.00
2017-06-18T04:05:09.401Z,57.20
2017-06-18T04:07:37.386Z,57.00
2017-06-18T04:10:05.802Z,57.60
2017-06-18T04:12:33.449Z,57.00
2017-06-18T04:15:01.147Z,57.20
2017-06-18T04:17:28.807Z,57.30
2017-06-18T04:19:56.483Z,57.50
2017-06-18T04:22:24.135Z,57.00
2017-06-18T04:24:51.808Z,57.30
2017-06-18T04:27:19.448Z,57.60
2017-06-18T04:29:47.412Z,57.80
2017-06-18T04:32:15.077Z,57.90
2017-06-18T04:34:42.726Z,57.50
2017-06-18T04:37:10.398Z,57.90
2017-06-18T04:39:38.041Z,58.20
2017-06-18T04:42:05.704Z,58.30
2017-06-18T04:44:33.357Z,58.90
2017-06-18T04:47:01.029Z,57.90
2017-06-18T04:49:28.684Z,57.80
2017-06-18T04:51:56.342Z,57.90
2017-06-18T04:54:24.126Z,58.10
2017-06-18T04:56:52.200Z,58.10
2017-06-18T04:59:19.844Z,58.30
2017-06-18T05:01:47.506Z,58.20
2017-06-18T05:04:15.174Z,58.00
2017-06-18T05:06:42.841Z,58.40
2017-06-18T05:09:10.510Z,58.20
2017-06-18T05:11:38.277Z,58.20
2017-06-18T05:14:05.936Z,58.30
2017-06-18T05:16:33.595Z,58.60
2017-06-18T05:19:01.271Z,58.60
2017-06-18T05:21:28.922Z,58.70
2017-06-18T05:23:56.972Z,58.70
2017-06-18T05:26:24.628Z,58.90
2017-06-18T05:28:52.482Z,59.00
2017-06-18T05:31:21.388Z,59.10
2017-06-18T05:33:49.195Z,59.10
2017-06-18T05:36:16.875Z,59.00
2017-06-18T05:38:44.537Z,58.60
2017-06-18T05:41:12.674Z,59.00
2017-06-18T05:43:40.321Z,59.20
2017-06-18T05:46:07.976Z,59.40
2017-06-18T05:48:35.627Z,59.10
2017-06-18T05:51:04.029Z,58.70
2017-06-18T05:53:31.692Z,58.60
2017-06-18T05:55:59.357Z,58.40
2017-06-18T05:58:27.037Z,58.40
2017-06-18T06:00:54.685Z,57.50
2017-06-18T06:03:22.672Z,57.30
2017-06-18T06:05:50.372Z,57.30
2017-06-18T06:08:18.794Z,56.40
2017-06-18T06:10:46.484Z,55.80
2017-06-18T06:13:14.125Z,54.80
2017-06-18T06:15:41.796Z,54.60
2017-06-18T06:18:10.384Z,53.60
2017-06-18T06:20:38.405Z,53.60
2017-06-18T06:23:06.821Z,51.50
2017-06-18T06:25:34.468Z,51.40
2017-06-18T06:28:02.133Z,51.40
2017-06-18T06:30:29.801Z,52.10
2017-06-18T06:32:57.471Z,52.10
2017-06-18T06:35:25.112Z,53.00
2017-06-18T06:37:53.033Z,53.10
2017-06-18T06:40:20.673Z,51.20
2017-06-18T06:42:48.723Z,51.50
2017-06-18T06:45:16.365Z,51.30
2017-06-18T06:47:44.007Z,51.90
2017-06-18T06:50:12.425Z,50.10
2017-06-18T06:52:40.116Z,50.10
2017-06-18T06:55:07.776Z,49.60
2017-06-18T06:57:35.435Z,50.10
2017-06-18T07:00:03.311Z,51.50
2017-06-18T07:02:31.112Z,50.90
2017-06-18T07:04:59.516Z,47.70
2017-06-18T07:07:27.160Z,47.70
2017-06-18T07:09:54.805Z,47.40
2017-06-18T07:12:23.501Z,45.00
2017-06-18T07:14:51.925Z,44.40
2017-06-18T07:17:19.668Z,44.30
2017-06-18T07:19:47.443Z,46.40
2017-06-18T07:22:15.487Z,44.70
2017-06-18T07:24:43.141Z,45.80
2017-06-18T07:27:11.549Z,46.80
2017-06-18T07:29:39.227Z,46.80
2017-06-18T07:32:06.966Z,47.70
2017-06-18T07:34:34.629Z,46.90
2017-06-18T07:37:02.264Z,47.30
2017-06-18T07:39:30.855Z,43.70
2017-06-18T07:41:59.257Z,46.50
2017-06-18T07:44:27.309Z,46.50
2017-06-18T07:46:54.959Z,48.20
2017-06-18T07:49:23.378Z,45.70
2017-06-18T07:51:51.069Z,46.20
2017-06-18T07:54:18.710Z,44.50
2017-06-18T07:56:46.395Z,41.10
2017-06-18T07:59:14.026Z,42.80
2017-06-18T08:01:41.681Z,41.20
2017-06-18T08:04:09.356Z,41.40
2017-06-18T08:06:37.051Z,42.40
2017-06-18T08:09:05.689Z,41.40
2017-06-18T08:11:33.686Z,43.10
2017-06-18T08:14:01.361Z,39.10
2017-06-18T08:16:29.009Z,39.30
2017-06-18T08:18:56.699Z,37.60
2017-06-18T08:21:24.371Z,37.10
2017-06-18T08:23:53.272Z,40.10
2017-06-18T08:26:21.673Z,40.20
2017-06-18T08:28:49.322Z,40.10
2017-06-18T08:31:23.679Z,38.90
2017-06-18T08:33:51.677Z,35.90
2017-06-18T08:36:19.375Z,38.00
2017-06-18T08:38:47.025Z,37.00
2017-06-18T08:41:15.453Z,36.30
2017-06-18T08:43:43.107Z,36.30
2017-06-18T08:46:10.817Z,36.90
2017-06-18T08:48:39.241Z,38.30
2017-06-18T08:51:07.280Z,38.20
2017-06-18T08:53:35.685Z,36.70
2017-06-18T08:56:42.341Z,36.60
2017-06-18T08:59:10.012Z,38.20
2017-06-18T09:01:37.654Z,32.50
2017-06-18T09:04:06.087Z,24.80
2017-06-18T09:06:33.734Z,24.70
2017-06-18T09:09:01.388Z,25.10
2017-06-18T09:11:29.033Z,26.40
2017-06-18T09:13:56.809Z,27.80
2017-06-18T09:16:24.775Z,28.40
2017-06-18T09:18:53.995Z,30.00
2017-06-18T09:21:21.658Z,30.40
2017-06-18T09:23:49.688Z,30.40
2017-06-18T09:26:18.385Z,30.20
2017-06-18T09:28:46.050Z,30.20
2017-06-18T09:31:13.724Z,31.50
2017-06-18T09:33:41.411Z,31.20
2017-06-18T09:36:09.082Z,30.30
2017-06-18T09:38:37.538Z,30.00
2017-06-18T09:41:05.201Z,30.00
2017-06-18T09:43:32.875Z,30.00
2017-06-18T09:46:00.773Z,30.80
2017-06-18T09:48:29.509Z,31.20
2017-06-18T09:50:57.173Z,31.20
2017-06-18T09:53:25.068Z,30.70
2017-06-18T09:55:52.725Z,32.30
2017-06-18T09:58:20.399Z,28.80
2017-06-18T10:00:48.065Z,23.80
2017-06-18T10:03:16.153Z,21.70
2017-06-18T10:05:43.817Z,19.20
2017-06-18T10:08:12.446Z,17.00
2017-06-18T10:10:40.810Z,16.90
2017-06-18T10:13:08.476Z,16.70
2017-06-18T10:15:36.161Z,18.40
2017-06-18T10:18:03.810Z,16.40
2017-06-18T10:20:31.481Z,20.20
2017-06-18T10:22:59.139Z,20.40
2017-06-18T10:25:27.282Z,21.70
2017-06-18T10:27:54.932Z,21.10
2017-06-18T10:30:23.363Z,21.30
2017-06-18T10:32:51.043Z,21.20
2017-06-18T10:35:18.898Z,22.30
2017-06-18T10:37:46.644Z,21.90
2017-06-18T10:40:14.556Z,22.70
2017-06-18T10:42:42.256Z,23.70
2017-06-18T10:45:10.004Z,23.30
2017-06-18T10:47:37.684Z,24.30
2017-06-18T10:50:05.327Z,23.30
2017-06-18T10:52:34.121Z,24.00
2017-06-18T10:55:01.767Z,23.90
2017-06-18T10:57:30.309Z,25.60
2017-06-18T10:59:57.996Z,25.30
2017-06-18T11:02:25.668Z,25.10
2017-06-18T11:04:54.454Z,26.10
2017-06-18T11:07:22.115Z,25.70
2017-06-18T11:09:49.770Z,26.30
2017-06-18T11:12:17.464Z,25.60
2017-06-18T11:14:45.106Z,25.20
2017-06-18T11:17:13.972Z,25.70
2017-06-18T11:19:41.805Z,25.20
2017-06-18T11:22:10.108Z,25.60
2017-06-18T11:24:37.821Z,25.50
2017-06-18T11:27:05.485Z,26.80
2017-06-18T11:29:33.163Z,29.40
2017-06-18T11:32:00.814Z,29.50
2017-06-18T11:34:28.482Z,29.30
2017-06-18T11:36:56.134Z,29.20
2017-06-18T11:39:24.212Z,28.10
2017-06-18T11:41:51.853Z,27.50
2017-06-18T11:44:20.276Z,27.00
2017-06-18T11:46:48.256Z,26.90
2017-06-18T11:49:15.976Z,27.20
2017-06-18T11:51:43.694Z,27.60
2017-06-18T11:54:11.672Z,27.60
2017-06-18T11:56:39.397Z,26.60
2017-06-18T11:59:07.038Z,27.40
2017-06-18T12:01:35.010Z,27.70
2017-06-18T12:04:02.685Z,28.80
2017-06-18T12:06:30.347Z,28.50
2017-06-18T12:08:58.033Z,27.90
2017-06-18T12:11:25.671Z,27.90
2017-06-18T12:13:53.731Z,28.00
2017-06-18T12:16:21.402Z,28.80
2017-06-18T12:18:49.074Z,29.70
2017-06-18T12:21:17.208Z,29.90
2017-06-18T12:23:45.638Z,28.00
2017-06-18T12:26:13.297Z,28.00
2017-06-18T12:28:41.320Z,27.70
2017-06-18T12:31:09.737Z,27.90
2017-06-18T12:33:37.386Z,27.80
2017-06-18T12:36:05.265Z,27.50
2017-06-18T12:38:32.925Z,28.20
2017-06-18T12:41:00.638Z,29.10
2017-06-18T12:43:28.303Z,28.20
2017-06-18T12:45:56.743Z,29.60
2017-06-18T12:48:24.412Z,29.10
2017-06-18T12:50:52.557Z,29.30
2017-06-18T12:53:20.210Z,28.70
2017-06-18T12:55:47.852Z,27.50
2017-06-18T12:58:16.632Z,28.90
2017-06-18T13:00:45.164Z,29.40
2017-06-18T13:03:12.837Z,29.40
2017-06-18T13:05:40.528Z,30.10
2017-06-18T13:08:08.165Z,31.10
2017-06-18T13:10:36.145Z,29.40
2017-06-18T13:13:03.884Z,30.30
2017-06-18T13:15:31.909Z,29.50
2017-06-18T13:18:00.323Z,29.10
2017-06-18T13:20:28.508Z,29.00
2017-06-18T13:22:56.163Z,29.50
2017-06-18T13:25:23.820Z,30.60
2017-06-18T13:27:51.493Z,30.80
2017-06-18T13:30:19.161Z,29.90
2017-06-18T13:32:46.861Z,29.40
2017-06-18T13:35:15.290Z,28.60
2017-06-18T13:37:42.969Z,28.60
2017-06-18T13:40:10.638Z,30.00
2017-06-18T13:42:38.787Z,29.50
2017-06-18T13:45:06.445Z,29.70
2017-06-18T13:47:34.085Z,29.80
2017-06-18T13:50:02.505Z,31.10
2017-06-18T13:52:30.357Z,31.00
2017-06-18T13:54:58.148Z,30.50
2017-06-18T13:57:25.800Z,30.00
2017-06-18T13:59:53.836Z,31.30
2017-06-18T14:02:21.519Z,32.90
2017-06-18T14:04:49.169Z,31.30
2017-06-18T14:07:16.847Z,30.80
2017-06-18T14:09:44.510Z,31.00
2017-06-18T14:12:12.176Z,30.40
2017-06-18T14:14:39.856Z,29.80
2017-06-18T14:17:07.544Z,28.90
2017-06-18T14:19:35.964Z,30.80
2017-06-18T14:22:03.999Z,30.30
2017-06-18T14:24:32.445Z,30.30
2017-06-18T14:27:00.104Z,30.20
2017-06-18T14:29:27.803Z,30.00
2017-06-18T14:31:56.230Z,30.70
2017-06-18T14:34:23.911Z,30.60
2017-06-18T14:36:51.568Z,29.10
2017-06-18T14:39:19.239Z,30.80
2017-06-18T14:41:46.903Z,29.90
2017-06-18T14:44:14.920Z,31.50
2017-06-18T14:46:42.594Z,31.40
2017-06-18T14:49:10.395Z,30.40
2017-06-18T14:51:38.630Z,31.20
2017-06-18T14:54:06.285Z,30.60
2017-06-18T14:56:33.953Z,30.00
2017-06-18T14:59:01.616Z,29.90
2017-06-18T15:01:29.294Z,30.10
2017-06-18T15:03:56.978Z,30.20
2017-06-18T15:06:24.696Z,30.30
2017-06-18T15:08:52.363Z,32.70
2017-06-18T15:11:20.413Z,31.30
2017-06-18T15:13:48.816Z,31.60
2017-06-18T15:16:16.485Z,31.60
2017-06-18T15:18:44.541Z,30.20
2017-06-18T15:21:12.205Z,29.70
2017-06-18T15:23:39.941Z,29.70
2017-06-18T15:26:07.941Z,30.00
2017-06-18T15:28:35.595Z,31.20
2017-06-18T15:31:03.242Z,32.40
2017-06-18T15:33:32.045Z,31.70
2017-06-18T15:36:00.471Z,31.50
2017-06-18T15:38:28.125Z,31.40
2017-06-18T15:40:56.156Z,31.20
2017-06-18T15:43:24.642Z,33.00
2017-06-18T15:45:52.346Z,33.00
2017-06-18T15:48:20.366Z,32.20
2017-06-18T15:50:48.801Z,31.90
2017-06-18T15:53:16.456Z,31.80
2017-06-18T15:55:44.560Z,30.40
2017-06-18T15:58:12.239Z,30.30
2017-06-18T16:00:39.944Z,31.60
2017-06-18T16:03:07.978Z,31.90
2017-06-18T16:05:36.393Z,33.10
2017-06-18T16:08:04.049Z,33.10
2017-06-18T16:10:32.087Z,32.90
2017-06-18T16:13:00.659Z,31.30
2017-06-18T16:15:29.082Z,32.50
2017-06-18T16:17:57.279Z,32.40
2017-06-18T16:20:25.176Z,33.20
2017-06-18T16:22:52.887Z,32.10
2017-06-18T16:25:20.940Z,31.30
2017-06-18T16:27:48.596Z,31.40
2017-06-18T16:30:16.265Z,33.00
2017-06-18T16:32:44.241Z,32.50
2017-06-18T16:35:11.889Z,33.30
2017-06-18T16:37:39.549Z,33.10
2017-06-18T16:40:07.624Z,31.80
2017-06-18T16:42:35.307Z,32.10
2017-06-18T16:45:03.806Z,31.30
2017-06-18T16:47:31.928Z,31.70
2017-06-18T16:50:00.494Z,32.30
2017-06-18T16:52:28.951Z,32.70
2017-06-18T16:54:57.045Z,32.70
2017-06-18T16:57:24.692Z,33.50
2017-06-18T16:59:52.352Z,33.00
2017-06-18T17:02:20.391Z,32.00
2017-06-18T17:04:48.121Z,32.40
2017-06-18T17:07:16.555Z,31.90
2017-06-18T17:09:44.595Z,31.90
2017-06-18T17:12:12.254Z,33.40
2017-06-18T17:14:39.906Z,33.20
2017-06-18T17:17:07.886Z,33.20
2017-06-18T17:19:36.011Z,34.30
2017-06-18T17:22:09.569Z,34.20
2017-06-18T17:24:37.249Z,34.50
2017-06-18T17:27:04.908Z,34.10
2017-06-18T17:29:32.951Z,34.00
2017-06-18T17:32:00.618Z,33.00
2017-06-18T17:34:28.281Z,33.70
2017-06-18T17:36:56.331Z,33.20
2017-06-18T17:39:24.776Z,33.30
2017-06-18T17:41:52.423Z,33.30
2017-06-18T17:44:20.463Z,33.30
2017-06-18T17:46:48.118Z,34.50
2017-06-18T17:49:15.771Z,33.90
2017-06-18T17:51:44.536Z,33.00
2017-06-18T17:54:12.207Z,32.90
2017-06-18T17:56:40.640Z,34.30
2017-06-18T17:59:08.644Z,34.30
2017-06-18T18:01:36.453Z,34.50
2017-06-18T18:04:04.107Z,35.10
2017-06-18T18:06:32.203Z,34.70
2017-06-18T18:08:59.889Z,34.20
2017-06-18T18:11:27.566Z,34.90
2017-06-18T18:13:55.613Z,34.60
2017-06-18T18:16:23.284Z,35.40
2017-06-18T18:18:50.933Z,35.70
2017-06-18T18:21:18.976Z,36.00
2017-06-18T18:23:46.639Z,36.10
2017-06-18T18:26:14.343Z,36.30
2017-06-18T18:28:42.361Z,36.80
2017-06-18T18:31:10.911Z,37.20
2017-06-18T18:33:38.710Z,37.10
2017-06-18T18:36:06.861Z,36.90
2017-06-18T18:38:34.533Z,36.90
2017-06-18T18:41:03.017Z,36.50
2017-06-18T18:43:31.827Z,36.40
2017-06-18T18:45:59.471Z,36.40
2017-06-18T18:48:27.131Z,36.40
2017-06-18T18:50:55.781Z,36.10
2017-06-18T18:53:23.447Z,36.00
2017-06-18T18:55:51.126Z,36.60
2017-06-18T18:58:20.411Z,35.50
2017-06-18T19:00:48.190Z,35.40
2017-06-18T19:03:17.301Z,36.50
2017-06-18T19:05:46.111Z,36.00
2017-06-18T19:08:14.099Z,35.90
2017-06-18T19:10:41.826Z,36.10
2017-06-18T19:13:10.752Z,36.10
2017-06-18T19:15:38.434Z,36.50
2017-06-18T19:27:51.162Z,36.80
2017-06-18T19:30:18.843Z,39.00
2017-06-18T19:32:46.515Z,38.90
2017-06-18T19:35:14.216Z,38.60
2017-06-18T19:37:42.968Z,38.60
2017-06-18T19:40:11.134Z,38.40
2017-06-18T19:42:38.853Z,38.30
2017-06-18T19:45:08.470Z,38.30
2017-06-18T19:47:36.495Z,38.20
2017-06-18T19:50:04.220Z,38.10
2017-06-18T19:52:31.888Z,38.20
2017-06-18T19:54:59.958Z,38.60
2017-06-18T19:57:27.825Z,39.10
2017-06-18T19:59:55.543Z,39.40
2017-06-18T20:02:28.186Z,39.20
2017-06-18T20:04:55.860Z,38.70
2017-06-18T20:07:23.524Z,38.20
2017-06-18T20:09:51.534Z,38.00
2017-06-18T20:12:20.082Z,38.40
2017-06-18T20:14:47.869Z,38.40
2017-06-18T20:17:16.707Z,38.00
2017-06-18T20:19:44.503Z,38.10
2017-06-18T20:22:12.168Z,38.30
2017-06-18T20:24:40.266Z,38.30
2017-06-18T20:27:08.727Z,39.00
2017-06-18T20:29:36.412Z,38.50
2017-06-18T20:32:05.244Z,38.80
2017-06-18T20:34:32.944Z,38.80
2017-06-18T20:37:00.642Z,39.00
2017-06-18T20:39:29.447Z,39.20
2017-06-18T20:41:57.112Z,39.20
2017-06-18T20:44:24.778Z,39.30
2017-06-18T20:46:52.932Z,39.40
2017-06-18T20:49:20.808Z,39.40
2017-06-18T20:51:48.499Z,39.50
2017-06-18T20:54:16.531Z,39.80
2017-06-18T20:56:44.177Z,40.00
2017-06-18T20:59:12.601Z,40.80
2017-06-18T21:01:40.754Z,40.70
2017-06-18T21:04:08.402Z,41.10
2017-06-18T21:06:36.830Z,41.80
2017-06-18T21:09:04.920Z,41.70
2017-06-18T21:11:32.592Z,41.90
2017-06-18T21:14:00.257Z,41.80
2017-06-18T21:16:28.245Z,41.60
2017-06-18T21:18:56.792Z,41.40
2017-06-18T21:21:24.439Z,41.40
2017-06-18T21:23:52.465Z,41.50
2017-06-18T21:26:20.883Z,41.40
2017-06-18T21:28:48.532Z,41.40
